createdAt,value
2023-02-19T00:00:01.578Z,94.42
2023-02-19T00:02:30.322Z,94.82
2023-02-19T00:04:58.495Z,93.79
2023-02-19T00:07:26.870Z,94.94
2023-02-19T00:09:54.940Z,93.63
2023-02-19T00:12:23.279Z,94.82
2023-02-19T00:14:51.214Z,95.38
2023-02-19T00:17:19.614Z,95.73
2023-02-19T00:19:47.588Z,95.65
2023-02-19T00:22:16.184Z,95.23
2023-02-19T00:24:44.280Z,95.61
2023-02-19T00:27:12.558Z,94.94
2023-02-19T00:29:40.570Z,94.19
2023-02-19T00:32:08.900Z,95.41
2023-02-19T00:34:36.942Z,95.11
2023-02-19T00:37:05.294Z,95.00
2023-02-19T00:39:33.394Z,95.90
2023-02-19T00:42:01.760Z,95.71
2023-02-19T00:44:29.741Z,95.72
2023-02-19T00:46:58.065Z,95.67
2023-02-19T00:49:26.006Z,96.14
2023-02-19T00:51:54.321Z,94.96
2023-02-19T00:54:25.444Z,95.54
2023-02-19T00:56:53.662Z,94.61
2023-02-19T00:59:21.689Z,96.37
2023-02-19T01:01:50.078Z,96.74
2023-02-19T01:04:18.773Z,96.84
2023-02-19T01:06:49.119Z,96.81
2023-02-19T01:09:17.009Z,97.17
2023-02-19T01:11:45.259Z,97.46
2023-02-19T01:14:13.475Z,97.28
2023-02-19T01:16:41.671Z,97.08
2023-02-19T01:19:09.769Z,96.65
2023-02-19T01:21:38.038Z,96.33
2023-02-19T01:24:06.256Z,94.72
2023-02-19T01:26:34.477Z,95.21
2023-02-19T01:29:05.054Z,96.56
2023-02-19T01:31:33.670Z,95.80
2023-02-19T01:34:04.724Z,95.17
2023-02-19T01:36:34.510Z,96.61
2023-02-19T01:39:05.264Z,95.74
2023-02-19T01:41:38.316Z,96.55
2023-02-19T01:44:27.861Z,99.70
2023-02-19T01:46:59.131Z,98.49
2023-02-19T01:49:48.958Z,97.59
2023-02-19T01:52:27.762Z,97.41
2023-02-19T01:54:57.182Z,97.38
2023-02-19T01:57:34.300Z,98.11
2023-02-19T02:00:20.470Z,97.59
2023-02-19T02:02:52.752Z,96.98
2023-02-19T02:05:43.280Z,96.40
2023-02-19T02:08:32.214Z,98.62
2023-02-19T02:11:00.410Z,98.02
2023-02-19T02:13:29.150Z,97.51
2023-02-19T02:16:25.893Z,97.39
2023-02-19T02:19:16.475Z,97.32
2023-02-19T02:22:07.848Z,98.48
2023-02-19T02:25:15.803Z,98.55
2023-02-19T02:27:52.558Z,100.00
2023-02-19T02:30:55.835Z,100.00
2023-02-19T02:33:47.884Z,100.00
2023-02-19T02:36:24.892Z,99.96
2023-02-19T02:38:54.401Z,100.00
2023-02-19T02:41:25.436Z,100.00
2023-02-19T02:43:53.322Z,100.00
2023-02-19T02:46:35.545Z,100.00
2023-02-19T02:49:14.772Z,100.00
2023-02-19T02:51:48.073Z,100.00
2023-02-19T02:54:42.882Z,100.00
2023-02-19T02:57:16.732Z,100.00
2023-02-19T02:59:49.408Z,99.90
2023-02-19T03:02:28.309Z,100.00
2023-02-19T03:05:28.464Z,100.00
2023-02-19T03:07:59.631Z,100.00
2023-02-19T03:10:40.300Z,100.00
2023-02-19T03:13:32.772Z,100.00
2023-02-19T03:16:31.747Z,100.00
2023-02-19T03:19:19.195Z,100.00
2023-02-19T03:21:55.790Z,100.00
2023-02-19T03:24:49.040Z,100.00
2023-02-19T03:27:20.797Z,100.00
2023-02-19T03:29:57.603Z,100.00
2023-02-19T03:32:36.260Z,100.00
2023-02-19T03:35:31.460Z,100.00
2023-02-19T03:38:37.032Z,100.00
2023-02-19T03:41:20.733Z,100.00
2023-02-19T03:44:11.498Z,100.00
2023-02-19T03:47:04.105Z,100.00
2023-02-19T03:49:34.864Z,100.00
2023-02-19T03:52:23.955Z,100.00
2023-02-19T03:55:03.178Z,100.00
2023-02-19T03:57:38.970Z,100.00
2023-02-19T04:00:12.491Z,100.00
2023-02-19T04:02:46.465Z,100.00
2023-02-19T04:05:27.083Z,100.00
2023-02-19T04:08:00.713Z,100.00
2023-02-19T04:10:34.793Z,100.00
2023-02-19T04:13:10.940Z,100.00
2023-02-19T04:15:43.357Z,100.00
2023-02-19T04:18:19.995Z,100.00
2023-02-19T04:20:48.937Z,100.00
2023-02-19T04:23:24.205Z,100.00
2023-02-19T04:25:59.909Z,100.00
2023-02-19T04:28:29.268Z,100.00
2023-02-19T04:30:57.192Z,100.00
2023-02-19T04:33:25.501Z,100.00
2023-02-19T04:35:53.512Z,100.00
2023-02-19T04:38:21.758Z,100.00
2023-02-19T04:40:51.946Z,100.00
2023-02-19T04:43:21.113Z,100.00
2023-02-19T04:45:49.148Z,100.00
2023-02-19T04:48:17.454Z,100.00
2023-02-19T04:50:45.373Z,100.00
2023-02-19T04:53:13.523Z,100.00
2023-02-19T04:55:41.560Z,100.00
2023-02-19T04:58:09.860Z,100.00
2023-02-19T05:00:38.048Z,100.00
2023-02-19T05:03:06.520Z,100.00
2023-02-19T05:05:35.458Z,100.00
2023-02-19T05:08:03.871Z,100.00
2023-02-19T05:10:31.900Z,100.00
2023-02-19T05:13:00.219Z,100.00
2023-02-19T05:15:28.243Z,100.00
2023-02-19T05:17:56.621Z,100.00
2023-02-19T05:20:24.558Z,100.00
2023-02-19T05:22:52.991Z,100.00
2023-02-19T05:25:21.151Z,100.00
2023-02-19T05:27:49.768Z,100.00
2023-02-19T05:30:17.873Z,100.00
2023-02-19T05:32:46.247Z,100.00
2023-02-19T05:35:14.148Z,100.00
2023-02-19T05:37:42.397Z,100.00
2023-02-19T05:40:10.698Z,100.00
2023-02-19T05:42:39.353Z,100.00
2023-02-19T05:45:07.867Z,100.00
2023-02-19T05:47:36.186Z,100.00
2023-02-19T05:50:04.431Z,100.00
2023-02-19T05:52:33.399Z,100.00
2023-02-19T05:55:01.302Z,100.00
2023-02-19T05:57:29.510Z,100.00
2023-02-19T05:59:57.412Z,100.00
2023-02-19T06:02:25.766Z,100.00
2023-02-19T06:04:54.172Z,100.00
2023-02-19T06:07:23.953Z,100.00
2023-02-19T06:09:52.049Z,100.00
2023-02-19T06:12:20.330Z,100.00
2023-02-19T06:14:48.579Z,100.00
2023-02-19T06:17:17.402Z,100.00
2023-02-19T06:19:45.403Z,100.00
2023-02-19T06:22:15.606Z,100.00
2023-02-19T06:24:43.790Z,100.00
2023-02-19T06:27:12.141Z,100.00
2023-02-19T06:29:41.491Z,100.00
2023-02-19T06:32:09.940Z,100.00
2023-02-19T06:34:38.201Z,100.00
2023-02-19T06:37:06.628Z,100.00
2023-02-19T06:39:34.958Z,100.00
2023-02-19T06:42:03.656Z,100.00
2023-02-19T06:44:32.104Z,100.00
2023-02-19T06:47:00.405Z,100.00
2023-02-19T06:49:28.485Z,100.00
2023-02-19T06:51:57.002Z,100.00
2023-02-19T06:54:26.527Z,100.00
2023-02-19T06:56:57.300Z,100.00
2023-02-19T06:59:26.027Z,100.00
2023-02-19T07:01:54.575Z,100.00
2023-02-19T07:04:22.573Z,100.00
2023-02-19T07:06:51.374Z,100.00
2023-02-19T07:09:19.300Z,100.00
2023-02-19T07:11:47.731Z,100.00
2023-02-19T07:14:16.936Z,100.00
2023-02-19T07:16:47.682Z,100.00
2023-02-19T07:19:16.093Z,100.00
2023-02-19T07:21:44.418Z,100.00
2023-02-19T07:24:12.460Z,100.00
2023-02-19T07:26:40.734Z,100.00
2023-02-19T07:29:10.491Z,100.00
2023-02-19T07:31:38.888Z,100.00
2023-02-19T07:34:08.065Z,100.00
2023-02-19T07:36:36.312Z,100.00
2023-02-19T07:39:04.712Z,100.00
2023-02-19T07:41:33.125Z,100.00
2023-02-19T07:44:01.062Z,100.00
2023-02-19T07:46:30.379Z,100.00
2023-02-19T07:49:00.273Z,100.00
2023-02-19T07:51:28.782Z,100.00
2023-02-19T07:53:56.934Z,100.00
2023-02-19T07:56:25.354Z,100.00
2023-02-19T07:58:53.455Z,100.00
2023-02-19T08:01:44.555Z,100.00
2023-02-19T08:04:14.855Z,100.00
2023-02-19T08:06:43.623Z,100.00
2023-02-19T08:09:12.074Z,100.00
2023-02-19T08:11:58.784Z,100.00
2023-02-19T08:14:27.877Z,100.00
2023-02-19T08:16:57.046Z,100.00
2023-02-19T08:19:25.508Z,100.00
2023-02-19T08:21:54.117Z,100.00
2023-02-19T08:24:22.270Z,100.00
2023-02-19T08:26:50.896Z,100.00
2023-02-19T08:29:18.939Z,100.00
2023-02-19T08:31:47.434Z,100.00
2023-02-19T08:34:15.717Z,100.00
2023-02-19T08:36:44.531Z,100.00
2023-02-19T08:39:12.680Z,100.00
2023-02-19T08:41:41.173Z,100.00
2023-02-19T08:44:09.358Z,100.00
2023-02-19T08:46:38.153Z,100.00
2023-02-19T08:49:06.093Z,100.00
2023-02-19T08:51:34.436Z,100.00
2023-02-19T08:54:04.511Z,100.00
2023-02-19T08:56:32.845Z,100.00
2023-02-19T08:59:00.820Z,100.00
2023-02-19T09:01:29.358Z,100.00
2023-02-19T09:03:57.581Z,100.00
2023-02-19T09:06:26.003Z,100.00
2023-02-19T09:08:54.013Z,100.00
2023-02-19T09:11:22.352Z,100.00
2023-02-19T09:13:50.282Z,100.00
2023-02-19T09:16:18.585Z,100.00
2023-02-19T09:18:46.522Z,100.00
2023-02-19T09:21:14.838Z,100.00
2023-02-19T09:23:42.809Z,100.00
2023-02-19T09:26:11.659Z,100.00
2023-02-19T09:28:41.989Z,100.00
2023-02-19T09:31:15.988Z,100.00
2023-02-19T09:33:45.643Z,100.00
2023-02-19T09:36:15.695Z,100.00
2023-02-19T09:38:43.770Z,100.00
2023-02-19T09:41:31.078Z,100.00
2023-02-19T09:44:00.899Z,100.00
2023-02-19T09:46:37.570Z,100.00
2023-02-19T09:49:11.401Z,100.00
2023-02-19T09:51:44.392Z,100.00
2023-02-19T09:54:23.120Z,100.00
2023-02-19T09:56:54.549Z,100.00
2023-02-19T09:59:27.512Z,100.00
2023-02-19T10:02:14.642Z,100.00
2023-02-19T10:04:44.973Z,100.00
2023-02-19T10:07:20.278Z,100.00
2023-02-19T10:09:54.740Z,100.00
2023-02-19T10:12:31.450Z,100.00
2023-02-19T10:15:12.533Z,100.00
2023-02-19T10:17:40.795Z,100.00
2023-02-19T10:20:16.455Z,100.00
2023-02-19T10:22:45.033Z,100.00
2023-02-19T10:25:17.218Z,100.00
2023-02-19T10:27:45.608Z,100.00
2023-02-19T10:30:23.465Z,100.00
2023-02-19T10:33:24.740Z,100.00
2023-02-19T10:36:02.668Z,100.00
2023-02-19T10:38:33.261Z,100.00
2023-02-19T10:41:14.299Z,100.00
2023-02-19T10:43:51.230Z,100.00
2023-02-19T10:46:23.463Z,100.00
2023-02-19T10:49:01.411Z,100.00
2023-02-19T10:51:38.644Z,100.00
2023-02-19T10:54:27.015Z,99.04
2023-02-19T10:56:55.007Z,96.65
2023-02-19T10:59:29.027Z,95.99
2023-02-19T11:02:02.692Z,97.00
2023-02-19T11:04:35.472Z,97.26
2023-02-19T11:07:17.267Z,95.78
2023-02-19T11:09:49.854Z,94.73
2023-02-19T11:12:27.287Z,93.76
2023-02-19T11:14:56.159Z,90.61
2023-02-19T11:17:29.537Z,91.34
2023-02-19T11:20:04.890Z,88.43
2023-02-19T11:22:37.710Z,85.01
2023-02-19T11:25:19.824Z,83.18
2023-02-19T11:28:07.514Z,82.70
2023-02-19T11:30:44.260Z,82.69
2023-02-19T11:33:27.615Z,84.82
2023-02-19T11:36:21.545Z,85.60
2023-02-19T11:38:49.647Z,85.50
2023-02-19T11:41:45.756Z,85.36
2023-02-19T11:45:07.404Z,85.27
2023-02-19T11:48:00.020Z,86.59
2023-02-19T11:50:57.780Z,88.81
2023-02-19T11:53:32.412Z,89.88
2023-02-19T11:56:23.960Z,84.02
2023-02-19T11:59:13.188Z,82.55
2023-02-19T12:02:18.401Z,76.55
2023-02-19T12:05:08.552Z,79.13
2023-02-19T12:08:13.733Z,76.95
2023-02-19T12:11:12.650Z,72.78
2023-02-19T12:13:55.395Z,73.20
2023-02-19T12:16:36.633Z,71.88
2023-02-19T12:19:16.644Z,71.45
2023-02-19T12:22:06.661Z,68.86
2023-02-19T12:25:11.308Z,68.66
2023-02-19T12:28:15.765Z,68.06
2023-02-19T12:30:58.640Z,66.95
2023-02-19T12:33:38.839Z,65.94
2023-02-19T12:36:25.317Z,65.58
2023-02-19T12:39:05.727Z,64.35
2023-02-19T12:42:15.057Z,65.18
2023-02-19T12:44:54.455Z,62.86
2023-02-19T12:47:28.369Z,63.91
2023-02-19T12:50:17.177Z,62.65
2023-02-19T12:52:50.671Z,61.50
2023-02-19T12:55:26.645Z,61.63
2023-02-19T12:57:57.132Z,61.92
2023-02-19T13:00:31.640Z,62.26
2023-02-19T13:03:11.814Z,61.69
2023-02-19T13:05:58.921Z,64.13
2023-02-19T13:08:34.098Z,61.84
2023-02-19T13:11:25.265Z,64.91
2023-02-19T13:14:00.324Z,66.43
2023-02-19T13:16:33.665Z,66.93
2023-02-19T13:19:04.469Z,64.63
2023-02-19T13:21:55.272Z,60.44
2023-02-19T13:24:39.947Z,59.76
2023-02-19T13:27:42.125Z,61.30
2023-02-19T13:30:12.811Z,59.18
2023-02-19T13:33:07.781Z,59.90
2023-02-19T13:36:01.725Z,63.28
2023-02-19T13:38:30.412Z,60.16
2023-02-19T13:41:00.468Z,60.92
2023-02-19T13:43:37.514Z,57.43
2023-02-19T13:46:11.486Z,56.70
2023-02-19T13:48:43.812Z,59.71
2023-02-19T13:51:24.025Z,60.16
2023-02-19T13:54:00.421Z,59.51
2023-02-19T13:56:36.095Z,57.27
2023-02-19T13:59:23.662Z,57.18
2023-02-19T14:01:52.043Z,59.64
2023-02-19T14:04:32.475Z,60.01
2023-02-19T14:07:03.995Z,59.14
2023-02-19T14:09:40.071Z,60.62
2023-02-19T14:12:07.889Z,58.40
2023-02-19T14:14:38.258Z,57.94
2023-02-19T14:17:10.257Z,58.49
2023-02-19T14:19:59.912Z,59.75
2023-02-19T14:22:58.072Z,62.37
2023-02-19T14:25:30.516Z,60.99
2023-02-19T14:28:06.089Z,61.56
2023-02-19T14:30:47.143Z,66.08
2023-02-19T14:33:17.922Z,62.72
2023-02-19T14:35:49.600Z,62.81
2023-02-19T14:38:22.343Z,62.19
2023-02-19T14:40:53.277Z,61.89
2023-02-19T14:43:24.426Z,62.93
2023-02-19T14:45:55.026Z,64.11
2023-02-19T14:48:31.428Z,63.86
2023-02-19T14:51:12.266Z,65.13
2023-02-19T14:53:44.575Z,66.38
2023-02-19T14:56:23.469Z,67.24
2023-02-19T14:59:09.248Z,67.35
2023-02-19T15:01:38.405Z,67.50
2023-02-19T15:04:07.077Z,68.26
2023-02-19T15:06:36.218Z,68.22
2023-02-19T15:09:07.327Z,68.74
2023-02-19T15:11:36.218Z,69.48
2023-02-19T15:14:07.874Z,69.43
2023-02-19T15:16:36.797Z,69.23
2023-02-19T15:19:09.869Z,70.60
2023-02-19T15:21:44.948Z,70.11
2023-02-19T15:24:16.298Z,69.93
2023-02-19T15:26:54.498Z,71.46
2023-02-19T15:29:28.871Z,70.50
2023-02-19T15:32:00.508Z,71.11
2023-02-19T15:34:33.164Z,71.49
2023-02-19T15:37:07.368Z,69.93
2023-02-19T15:39:45.373Z,70.98
2023-02-19T15:42:21.214Z,71.84
2023-02-19T15:45:16.147Z,71.27
2023-02-19T15:48:04.654Z,71.58
2023-02-19T15:50:36.324Z,72.58
2023-02-19T15:53:22.122Z,74.61
2023-02-19T15:56:01.915Z,74.00
2023-02-19T15:58:33.203Z,75.44
2023-02-19T16:01:05.442Z,76.12
2023-02-19T16:03:35.264Z,76.51
2023-02-19T16:06:05.176Z,75.72
2023-02-19T16:08:38.781Z,76.36
2023-02-19T16:11:28.406Z,78.42
2023-02-19T16:14:29.032Z,78.67
2023-02-19T16:17:20.953Z,79.79
2023-02-19T16:20:03.597Z,80.25
2023-02-19T16:22:41.205Z,81.80
2023-02-19T16:25:24.858Z,81.39
2023-02-19T16:27:52.972Z,82.15
2023-02-19T16:30:29.370Z,82.42
2023-02-19T16:33:37.212Z,81.24
2023-02-19T16:36:26.543Z,82.25
2023-02-19T16:39:13.341Z,81.96
2023-02-19T16:41:41.474Z,82.28
2023-02-19T16:44:39.102Z,82.56
2023-02-19T16:47:16.783Z,81.48
2023-02-19T16:49:45.002Z,81.99
2023-02-19T16:52:16.046Z,82.29
2023-02-19T16:54:43.969Z,83.12
2023-02-19T16:57:12.481Z,82.79
2023-02-19T16:59:40.532Z,83.34
2023-02-19T17:02:15.596Z,83.35
2023-02-19T17:04:43.983Z,83.87
2023-02-19T17:07:17.337Z,85.45
2023-02-19T17:09:45.766Z,84.71
2023-02-19T17:12:16.177Z,84.55
2023-02-19T17:14:44.203Z,84.77
2023-02-19T17:17:12.467Z,84.17
2023-02-19T17:19:40.487Z,84.24
2023-02-19T17:22:09.017Z,83.84
2023-02-19T17:24:36.932Z,83.83
2023-02-19T17:27:06.310Z,84.24
2023-02-19T17:29:35.392Z,83.59
2023-02-19T17:32:04.029Z,83.75
2023-02-19T17:34:32.104Z,83.50
2023-02-19T17:37:00.510Z,84.20
2023-02-19T17:39:28.588Z,83.91
2023-02-19T17:41:57.240Z,84.17
2023-02-19T17:44:25.250Z,83.73
2023-02-19T17:46:53.618Z,83.11
2023-02-19T17:49:21.610Z,82.53
2023-02-19T17:51:49.888Z,82.96
2023-02-19T17:54:17.814Z,82.50
2023-02-19T17:56:46.304Z,82.30
2023-02-19T17:59:14.295Z,82.68
2023-02-19T18:01:42.782Z,82.28
2023-02-19T18:04:10.902Z,82.11
2023-02-19T18:06:39.325Z,82.12
2023-02-19T18:09:07.311Z,82.08
2023-02-19T18:11:37.302Z,82.57
2023-02-19T18:14:05.453Z,82.83
2023-02-19T18:16:33.791Z,82.58
2023-02-19T18:19:02.530Z,82.86
2023-02-19T18:21:31.347Z,82.38
2023-02-19T18:23:59.229Z,82.28
2023-02-19T18:26:27.532Z,81.73
2023-02-19T18:28:55.543Z,82.20
2023-02-19T18:31:23.934Z,82.72
2023-02-19T18:33:51.900Z,82.24
2023-02-19T18:36:20.173Z,81.99
2023-02-19T18:38:48.137Z,82.43
2023-02-19T18:41:20.196Z,83.19
2023-02-19T18:43:49.198Z,82.32
2023-02-19T18:46:21.736Z,82.96
2023-02-19T18:48:49.676Z,82.88
2023-02-19T18:51:17.973Z,83.44
2023-02-19T18:53:45.853Z,83.08
2023-02-19T18:56:14.153Z,82.61
2023-02-19T18:58:42.162Z,81.81
2023-02-19T19:01:14.200Z,82.84
2023-02-19T19:03:42.332Z,83.44
2023-02-19T19:06:10.604Z,83.73
2023-02-19T19:08:38.602Z,83.27
2023-02-19T19:11:06.870Z,83.04
2023-02-19T19:13:34.765Z,84.78
2023-02-19T19:16:03.196Z,84.35
2023-02-19T19:18:31.626Z,83.22
2023-02-19T19:21:03.603Z,83.08
2023-02-19T19:23:32.026Z,83.47
2023-02-19T19:26:00.402Z,84.54
2023-02-19T19:28:31.305Z,84.76
2023-02-19T19:31:00.359Z,83.77
2023-02-19T19:33:28.426Z,84.63
2023-02-19T19:35:56.833Z,84.20
2023-02-19T19:38:24.897Z,83.63
2023-02-19T19:40:53.241Z,83.67
2023-02-19T19:43:21.216Z,83.55
2023-02-19T19:45:50.681Z,83.03
2023-02-19T19:48:18.775Z,82.92
2023-02-19T19:50:47.313Z,82.13
2023-02-19T19:53:15.384Z,81.52
2023-02-19T19:55:44.056Z,82.72
2023-02-19T19:58:12.294Z,83.22
2023-02-19T20:00:40.649Z,82.49
2023-02-19T20:03:10.059Z,82.87
2023-02-19T20:05:38.424Z,82.66
2023-02-19T20:08:06.503Z,81.96
2023-02-19T20:10:35.203Z,81.76
2023-02-19T20:13:04.608Z,81.00
2023-02-19T20:15:33.023Z,81.39
2023-02-19T20:18:01.828Z,82.32
2023-02-19T20:20:30.792Z,83.08
2023-02-19T20:22:58.831Z,82.58
2023-02-19T20:25:27.667Z,84.08
2023-02-19T20:27:55.934Z,83.79
2023-02-19T20:30:24.933Z,82.46
2023-02-19T20:32:53.807Z,82.63
2023-02-19T20:35:22.217Z,82.54
2023-02-19T20:37:50.197Z,81.89
2023-02-19T20:40:18.837Z,81.78
2023-02-19T20:42:46.808Z,83.22
2023-02-19T20:45:16.907Z,84.34
2023-02-19T20:47:44.891Z,84.60
2023-02-19T20:50:13.291Z,84.11
2023-02-19T20:52:41.738Z,85.35
2023-02-19T20:55:10.364Z,85.34
2023-02-19T20:57:38.456Z,84.67
2023-02-19T21:00:09.015Z,85.18
2023-02-19T21:02:37.182Z,84.56
2023-02-19T21:05:05.992Z,85.16
2023-02-19T21:07:33.984Z,83.96
2023-02-19T21:10:02.458Z,84.34
2023-02-19T21:12:30.528Z,84.51
2023-02-19T21:14:58.873Z,83.49
2023-02-19T21:17:26.838Z,83.68
2023-02-19T21:19:55.096Z,84.35
2023-02-19T21:22:23.123Z,84.90
2023-02-19T21:24:53.277Z,84.89
2023-02-19T21:27:21.446Z,85.01
2023-02-19T21:29:49.896Z,85.35
2023-02-19T21:32:18.056Z,85.17
2023-02-19T21:34:46.428Z,85.81
2023-02-19T21:37:14.349Z,86.54
2023-02-19T21:39:43.028Z,87.31
2023-02-19T21:42:11.045Z,86.50
2023-02-19T21:44:39.693Z,86.51
2023-02-19T21:47:08.501Z,86.54
2023-02-19T21:49:36.734Z,85.67
2023-02-19T21:52:04.759Z,85.60
2023-02-19T21:54:33.046Z,84.50
2023-02-19T21:57:04.007Z,84.76
2023-02-19T21:59:32.561Z,85.07
2023-02-19T22:02:00.592Z,84.73
2023-02-19T22:04:29.063Z,83.99
2023-02-19T22:06:57.363Z,84.23
2023-02-19T22:09:25.772Z,83.60
2023-02-19T22:11:53.694Z,83.71
2023-02-19T22:14:22.024Z,83.96
2023-02-19T22:16:50.049Z,83.84
2023-02-19T22:19:18.312Z,84.08
2023-02-19T22:21:46.588Z,84.14
2023-02-19T22:24:18.157Z,84.92
2023-02-19T22:26:46.606Z,85.08
2023-02-19T22:29:15.826Z,84.23
2023-02-19T22:31:44.774Z,84.87
2023-02-19T22:34:13.470Z,84.71
2023-02-19T22:36:42.272Z,85.35
2023-02-19T22:39:23.510Z,85.42
2023-02-19T22:41:52.646Z,85.42
2023-02-19T22:44:21.023Z,85.76
2023-02-19T22:46:54.849Z,86.25
2023-02-19T22:49:24.336Z,86.54
2023-02-19T22:51:58.389Z,86.92
2023-02-19T22:54:27.253Z,86.06
2023-02-19T22:56:55.856Z,86.83
2023-02-19T22:59:24.312Z,86.90
2023-02-19T23:01:52.909Z,86.95
2023-02-19T23:04:22.494Z,85.92
2023-02-19T23:06:50.982Z,85.33
2023-02-19T23:09:23.681Z,86.15
2023-02-19T23:11:52.558Z,85.92
2023-02-19T23:14:22.464Z,86.95
2023-02-19T23:16:50.386Z,87.51
2023-02-19T23:19:18.804Z,87.54
2023-02-19T23:21:47.037Z,87.93
2023-02-19T23:24:16.145Z,88.03
2023-02-19T23:26:49.878Z,89.61
2023-02-19T23:29:25.343Z,88.98
2023-02-19T23:31:54.772Z,88.55
2023-02-19T23:34:24.772Z,87.79
2023-02-19T23:36:52.775Z,87.63
2023-02-19T23:39:22.244Z,87.32
2023-02-19T23:41:53.262Z,88.71
2023-02-19T23:44:22.857Z,91.94
2023-02-19T23:46:52.206Z,92.77
2023-02-19T23:49:20.783Z,95.08
2023-02-19T23:51:48.777Z,96.21
2023-02-19T23:54:17.048Z,94.72
2023-02-19T23:56:45.156Z,95.02
2023-02-19T23:59:13.788Z,94.51
